Time;durP1;ratioP1;P1;durP2;ratioP2;P2;SDS_P1;SDS_P2;PMS_P1;PMS_P2;Temp;Humidity;BMP_temperature;BMP_pressure;BME280_temperature;BME280_humidity;BME280_pressure;Samples;Min_cycle;Max_cycle;Signal;HPM_P1;HPM_P2
2023/09/02 00:02:26;;;;;;;2.92;1.48;;;16.20;99.90;;;;;;6245004;28;20045;-78
2023/09/02 00:05:28;;;;;;;2.90;1.60;;;16.20;99.90;;;;;;6245206;28;20045;-78
2023/09/02 00:08:30;;;;;;;2.17;1.40;;;16.20;99.90;;;;;;6244096;28;20045;-78
2023/09/02 00:11:31;;;;;;;2.33;1.33;;;16.20;99.90;;;;;;6245174;28;20053;-78
2023/09/02 00:14:33;;;;;;;3.85;1.65;;;16.10;99.90;;;;;;6245007;28;20075;-79
2023/09/02 00:17:36;;;;;;;7.00;1.85;;;16.10;99.90;;;;;;6244665;28;20052;-78
2023/09/02 00:20:38;;;;;;;1.05;0.95;;;16.10;99.90;;;;;;6244279;28;20417;-78
2023/09/02 00:23:45;;;;;;;3.20;1.42;;;16.10;99.90;;;;;;6244802;28;20419;-78
2023/09/02 00:26:46;;;;;;;1.95;1.10;;;16.10;99.90;;;;;;6245132;28;20060;-78
2023/09/02 00:29:48;;;;;;;2.83;1.35;;;16.10;99.90;;;;;;6244210;28;20365;-78
2023/09/02 00:32:51;;;;;;;1.50;1.40;;;16.10;99.90;;;;;;6244728;28;20045;-79
2023/09/02 00:35:53;;;;;;;3.25;1.40;;;16.10;99.90;;;;;;6244199;28;20053;-78
2023/09/02 00:38:54;;;;;;;5.68;1.58;;;16.00;99.90;;;;;;6244784;28;20050;-78
2023/09/02 00:42:00;;;;;;;1.35;1.15;;;15.90;99.90;;;;;;6244783;28;20050;-78
2023/09/02 00:45:02;;;;;;;4.50;1.70;;;15.90;99.90;;;;;;6243968;28;20137;-78
2023/09/02 00:48:05;;;;;;;5.22;1.60;;;15.90;99.90;;;;;;6244396;28;20041;-78
2023/09/02 00:51:07;;;;;;;1.98;1.10;;;15.90;99.90;;;;;;6244733;28;20045;-78
2023/09/02 00:54:09;;;;;;;2.97;1.58;;;15.80;99.90;;;;;;6244476;28;20041;-78
2023/09/02 00:57:11;;;;;;;3.30;1.42;;;15.80;99.90;;;;;;6244393;28;20045;-78
2023/09/02 01:00:14;;;;;;;2.70;1.70;;;15.70;99.90;;;;;;6244346;28;20401;-78
2023/09/02 01:03:17;;;;;;;8.80;1.98;;;15.70;99.90;;;;;;6244398;28;20060;-78
2023/09/02 01:06:19;;;;;;;2.63;1.95;;;15.70;99.90;;;;;;6244217;28;20125;-78
2023/09/02 01:09:21;;;;;;;1.98;1.77;;;15.70;99.90;;;;;;6244039;28;20504;-78
2023/09/02 01:12:23;;;;;;;4.53;1.83;;;15.70;99.90;;;;;;6244081;28;20159;-78
2023/09/02 01:15:25;;;;;;;3.10;2.03;;;15.60;99.90;;;;;;6245036;28;20049;-78
2023/09/02 01:18:28;;;;;;;4.78;1.67;;;15.60;99.90;;;;;;6243561;28;20045;-78
2023/09/02 01:22:00;;;;;;;1.58;1.27;;;15.60;99.90;;;;;;6242484;28;20041;-78
2023/09/02 01:25:18;;;;;;;1.85;1.38;;;15.60;99.90;;;;;;6247095;28;20056;-78
2023/09/02 01:28:29;;;;;;;4.20;1.77;;;15.50;99.90;;;;;;6247420;28;20049;-78
2023/09/02 01:31:32;;;;;;;5.13;1.85;;;15.50;99.90;;;;;;6247921;28;20133;-78
2023/09/02 01:34:35;;;;;;;2.33;1.35;;;15.50;99.90;;;;;;6248602;28;20057;-78
2023/09/02 01:37:43;;;;;;;4.05;1.52;;;15.40;99.90;;;;;;6247741;28;20060;-78
2023/09/02 01:40:45;;;;;;;2.50;1.80;;;15.40;99.90;;;;;;6247617;28;20477;-77
2023/09/02 01:43:49;;;;;;;2.78;2.55;;;15.30;99.90;;;;;;6247979;28;20045;-78
2023/09/02 01:46:51;;;;;;;3.63;1.42;;;15.30;99.90;;;;;;6248810;28;20529;-78
2023/09/02 01:49:53;;;;;;;3.22;1.75;;;15.30;99.90;;;;;;6247783;28;20179;-78
2023/09/02 01:52:56;;;;;;;2.30;2.10;;;15.30;99.90;;;;;;6248133;28;20049;-78
2023/09/02 01:55:59;;;;;;;5.47;1.90;;;15.30;99.90;;;;;;6247578;28;20084;-78
2023/09/02 01:59:02;;;;;;;7.82;1.58;;;15.30;99.90;;;;;;6248348;28;20049;-78
2023/09/02 02:02:03;;;;;;;13.73;2.53;;;15.20;99.90;;;;;;6247505;28;20045;-78
2023/09/02 02:05:07;;;;;;;3.53;1.70;;;15.20;99.90;;;;;;6247790;28;20053;-78
2023/09/02 02:08:16;;;;;;;7.30;2.20;;;15.20;99.90;;;;;;6247172;28;20095;-78
2023/09/02 02:11:20;;;;;;;2.05;1.85;;;15.20;99.90;;;;;;6248112;28;20046;-78
2023/09/02 02:14:23;;;;;;;4.35;1.65;;;15.10;99.90;;;;;;6247393;28;20052;-78
2023/09/02 02:17:26;;;;;;;4.47;1.70;;;15.10;99.90;;;;;;6250070;28;20041;-78
2023/09/02 02:20:34;;;;;;;1.80;1.65;;;15.10;99.90;;;;;;6272080;28;20519;-78
2023/09/02 02:23:36;;;;;;;2.08;1.88;;;15.00;99.90;;;;;;6272324;28;20049;-78
2023/09/02 02:26:38;;;;;;;5.78;2.08;;;15.00;99.90;;;;;;6258051;28;20515;-78
2023/09/02 02:29:41;;;;;;;3.65;1.50;;;15.00;99.90;;;;;;6246771;28;20049;-78
2023/09/02 02:32:42;;;;;;;5.00;1.63;;;15.00;99.90;;;;;;6246557;28;20038;-78
2023/09/02 02:35:44;;;;;;;4.95;1.42;;;14.90;99.90;;;;;;6246877;28;20132;-78
2023/09/02 02:38:46;;;;;;;2.20;2.00;;;14.90;99.90;;;;;;6249491;28;20056;-79
2023/09/02 02:41:47;;;;;;;3.08;1.75;;;14.90;99.90;;;;;;6252986;28;20060;-77
2023/09/02 02:44:50;;;;;;;6.65;2.17;;;14.90;99.90;;;;;;6252435;28;20417;-79
2023/09/02 02:47:52;;;;;;;4.07;1.30;;;14.90;99.90;;;;;;6251835;28;20064;-78
2023/09/02 02:50:54;;;;;;;2.20;1.25;;;14.80;99.90;;;;;;6252760;28;20052;-80
2023/09/02 02:53:55;;;;;;;2.38;2.00;;;14.80;99.90;;;;;;6251657;28;20418;-79
2023/09/02 02:56:57;;;;;;;3.47;1.50;;;14.70;99.90;;;;;;6251881;28;20053;-77
2023/09/02 03:00:00;;;;;;;2.77;2.03;;;14.70;99.90;;;;;;6251808;28;20456;-78
2023/09/02 03:03:03;;;;;;;4.10;1.88;;;14.60;99.90;;;;;;6252057;28;20053;-79
2023/09/02 03:06:05;;;;;;;3.63;1.63;;;14.60;99.90;;;;;;6251838;28;20527;-78
2023/09/02 03:09:07;;;;;;;2.22;1.85;;;14.60;99.90;;;;;;6251585;28;20057;-78
2023/09/02 03:12:09;;;;;;;3.67;2.22;;;14.70;99.90;;;;;;6251427;28;20049;-78
2023/09/02 03:15:12;;;;;;;3.08;2.47;;;14.70;99.90;;;;;;6252119;28;20050;-79
2023/09/02 03:18:14;;;;;;;2.63;2.40;;;14.70;99.90;;;;;;6261211;28;20099;-78
2023/09/02 03:21:15;;;;;;;3.97;3.58;;;14.70;99.90;;;;;;6276435;28;20052;-79
2023/09/02 03:24:17;;;;;;;2.50;2.30;;;14.80;99.90;;;;;;6275892;28;20053;-78
2023/09/02 03:27:19;;;;;;;2.80;1.90;;;14.80;99.90;;;;;;6275501;28;20360;-77
2023/09/02 03:30:22;;;;;;;5.15;1.80;;;14.80;99.90;;;;;;6275264;28;20056;-78
2023/09/02 03:33:23;;;;;;;3.35;2.20;;;14.90;99.90;;;;;;6276659;28;20048;-79
2023/09/02 03:36:25;;;;;;;3.20;1.73;;;14.90;99.90;;;;;;6275903;28;20071;-79
2023/09/02 03:39:28;;;;;;;3.28;1.85;;;14.80;99.90;;;;;;6275366;28;20467;-79
2023/09/02 03:42:29;;;;;;;3.22;1.60;;;14.60;99.90;;;;;;6275566;28;20041;-79
2023/09/02 03:45:32;;;;;;;2.40;1.83;;;14.60;99.90;;;;;;6275655;28;20052;-78
2023/09/02 03:48:34;;;;;;;5.45;2.15;;;14.70;99.90;;;;;;6275630;28;20136;-78
2023/09/02 03:51:37;;;;;;;5.72;1.50;;;14.80;99.90;;;;;;6260197;28;20045;-78
2023/09/02 03:54:39;;;;;;;2.25;1.83;;;14.80;99.90;;;;;;6252213;28;20573;-79
2023/09/02 03:57:40;;;;;;;2.38;1.65;;;14.80;99.90;;;;;;6251190;28;20063;-78
2023/09/02 04:00:43;;;;;;;2.83;1.52;;;14.80;99.90;;;;;;6252016;28;20805;-79
2023/09/02 04:03:45;;;;;;;2.05;1.60;;;14.80;99.90;;;;;;6252314;28;20053;-77
2023/09/02 04:06:47;;;;;;;4.40;1.70;;;14.80;99.90;;;;;;6251570;28;20045;-78
2023/09/02 04:09:48;;;;;;;1.70;1.60;;;14.80;99.90;;;;;;6252101;28;20068;-78
2023/09/02 04:12:50;;;;;;;1.85;1.67;;;14.80;99.90;;;;;;6248605;28;20071;-78
2023/09/02 04:15:55;;;;;;;3.03;2.00;;;14.80;99.90;;;;;;6248074;28;20478;-77
2023/09/02 04:19:02;;;;;;;3.38;1.95;;;14.80;99.90;;;;;;6247788;28;20543;-77
2023/09/02 04:22:04;;;;;;;7.53;2.15;;;14.80;99.90;;;;;;6240341;28;20409;-78
2023/09/02 04:25:10;;;;;;;2.13;1.92;;;14.80;99.90;;;;;;6247941;28;20056;-78
2023/09/02 04:28:11;;;;;;;2.50;1.63;;;14.80;99.90;;;;;;6247373;28;20053;-78
2023/09/02 04:31:14;;;;;;;3.75;2.13;;;14.80;99.90;;;;;;6248460;28;20049;-77
2023/09/02 04:34:16;;;;;;;3.70;1.48;;;14.70;99.90;;;;;;6249651;28;20050;-77
2023/09/02 04:37:18;;;;;;;1.25;1.15;;;14.70;99.90;;;;;;6249862;28;20050;-78
2023/09/02 04:40:20;;;;;;;6.25;2.00;;;14.70;99.90;;;;;;6248234;28;20052;-78
2023/09/02 04:43:21;;;;;;;5.45;2.47;;;14.70;99.90;;;;;;6250312;28;20046;-77
2023/09/02 04:46:25;;;;;;;1.92;1.52;;;14.60;99.90;;;;;;6248512;28;20060;-77
2023/09/02 04:49:27;;;;;;;3.15;1.40;;;14.60;99.90;;;;;;6249730;28;20505;-78
2023/09/02 04:52:29;;;;;;;4.22;2.15;;;14.60;99.90;;;;;;6249865;28;20061;-78
2023/09/02 04:55:31;;;;;;;5.45;1.92;;;14.50;99.90;;;;;;6250936;28;20056;-78
2023/09/02 04:58:32;;;;;;;1.88;1.60;;;14.50;99.90;;;;;;6254325;28;20049;-78
2023/09/02 05:01:35;;;;;;;3.20;2.30;;;14.50;99.90;;;;;;6256396;28;20050;-77
2023/09/02 05:04:37;;;;;;;2.28;1.80;;;14.40;99.90;;;;;;6255446;28;20049;-79
2023/09/02 05:07:39;;;;;;;2.22;1.50;;;14.50;99.90;;;;;;6254659;28;20049;-79
2023/09/02 05:10:40;;;;;;;2.22;2.03;;;14.50;99.90;;;;;;6255702;28;20057;-78
2023/09/02 05:13:42;;;;;;;2.05;1.73;;;14.60;99.90;;;;;;6254540;28;20079;-77
2023/09/02 05:16:45;;;;;;;4.85;2.33;;;14.60;99.90;;;;;;6254976;28;20373;-79
2023/09/02 05:19:47;;;;;;;3.00;2.25;;;14.60;99.90;;;;;;6265297;28;20045;-78
2023/09/02 05:22:48;;;;;;;6.97;2.50;;;14.70;99.90;;;;;;6255416;28;20052;-77
2023/09/02 05:25:55;;;;;;;5.55;2.03;;;14.80;99.90;;;;;;6254923;28;20401;-78
2023/09/02 05:28:56;;;;;;;4.85;2.05;;;14.90;99.90;;;;;;6254002;28;20405;-78
2023/09/02 05:31:59;;;;;;;2.08;1.65;;;15.00;99.90;;;;;;6252596;28;20501;-77
2023/09/02 05:35:01;;;;;;;7.35;1.48;;;15.20;99.90;;;;;;6249424;28;20396;-76
2023/09/02 05:38:04;;;;;;;1.77;1.60;;;15.30;99.90;;;;;;6249188;28;20045;-77
2023/09/02 05:41:06;;;;;;;5.05;2.55;;;15.40;99.90;;;;;;6248427;28;20132;-77
2023/09/02 05:44:07;;;;;;;6.40;1.67;;;15.60;99.90;;;;;;6249304;28;20044;-76
2023/09/02 05:47:10;;;;;;;3.80;1.50;;;15.70;99.90;;;;;;6241644;28;20056;-77
2023/09/02 05:50:12;;;;;;;2.70;1.98;;;15.90;99.90;;;;;;6246658;28;20053;-77
2023/09/02 05:53:14;;;;;;;3.42;1.65;;;16.10;99.90;;;;;;6248147;28;20175;-76
2023/09/02 05:56:16;;;;;;;2.28;1.95;;;16.20;99.90;;;;;;6247467;28;20370;-77
2023/09/02 05:59:17;;;;;;;3.67;1.88;;;16.30;99.90;;;;;;6237620;28;20440;-77
2023/09/02 06:02:20;;;;;;;5.32;1.40;;;16.40;99.90;;;;;;6250567;28;21538;-78
2023/09/02 06:05:22;;;;;;;2.78;1.63;;;16.60;99.90;;;;;;6248742;28;20042;-77
2023/09/02 06:08:24;;;;;;;7.45;3.92;;;16.90;99.90;;;;;;6246468;28;20041;-77
2023/09/02 06:11:25;;;;;;;5.20;1.65;;;17.20;99.90;;;;;;6251091;28;20049;-78
2023/09/02 06:14:27;;;;;;;2.28;2.08;;;17.60;99.90;;;;;;6251163;28;20053;-77
2023/09/02 06:17:31;;;;;;;2.63;1.90;;;18.00;99.90;;;;;;6249541;28;20385;-77
2023/09/02 06:20:33;;;;;;;1.77;1.50;;;18.40;99.90;;;;;;6250290;28;20045;-77
2023/09/02 06:23:35;;;;;;;1.20;1.00;;;18.70;99.90;;;;;;6244911;28;20049;-77
2023/09/02 06:26:36;;;;;;;7.00;1.45;;;19.40;99.90;;;;;;6247203;28;20489;-77
2023/09/02 06:29:38;;;;;;;11.77;1.65;;;20.10;99.90;;;;;;6246700;28;20041;-76
2023/09/02 06:32:41;;;;;;;3.22;1.45;;;20.80;99.90;;;;;;6247401;28;20045;-77
2023/09/02 06:35:43;;;;;;;1.58;1.23;;;21.30;99.90;;;;;;6247799;28;20049;-77
2023/09/02 06:38:45;;;;;;;1.67;1.23;;;21.50;99.90;;;;;;6247682;28;20060;-76
2023/09/02 06:41:47;;;;;;;3.47;1.33;;;21.50;99.90;;;;;;6246926;28;20493;-77
2023/09/02 06:44:52;;;;;;;3.78;1.20;;;21.40;99.90;;;;;;6247272;28;20052;-76
2023/09/02 06:47:56;;;;;;;1.80;1.30;;;21.30;99.90;;;;;;6246182;28;20052;-76
2023/09/02 06:50:57;;;;;;;12.00;1.90;;;21.20;99.90;;;;;;6247371;28;20115;-77
2023/09/02 06:53:59;;;;;;;4.05;1.27;;;21.20;99.90;;;;;;6247239;28;20148;-76
2023/09/02 06:57:00;;;;;;;2.53;1.00;;;21.20;99.90;;;;;;6246281;28;20052;-76
2023/09/02 07:00:02;;;;;;;1.27;0.85;;;21.20;99.90;;;;;;6245975;28;20050;-76
2023/09/02 07:03:05;;;;;;;2.17;1.20;;;21.20;99.90;;;;;;6246821;28;20049;-76
2023/09/02 07:06:08;;;;;;;1.83;1.23;;;21.30;99.90;;;;;;6246575;28;20045;-76
2023/09/02 07:09:10;;;;;;;5.13;1.42;;;21.40;99.90;;;;;;6246603;28;20060;-77
2023/09/02 07:12:12;;;;;;;2.00;1.10;;;21.60;99.90;;;;;;6246053;28;20555;-77
2023/09/02 07:15:14;;;;;;;1.80;1.30;;;21.80;99.90;;;;;;6248575;28;20045;-77
2023/09/02 07:18:17;;;;;;;1.10;0.88;;;21.90;99.90;;;;;;6255276;28;20052;-77
2023/09/02 07:21:22;;;;;;;2.45;1.30;;;22.10;99.90;;;;;;6271387;28;20049;-76
2023/09/02 07:24:24;;;;;;;4.90;1.55;;;22.20;99.90;;;;;;6254433;28;20046;-78
2023/09/02 07:27:25;;;;;;;3.08;1.00;;;22.30;99.90;;;;;;6245581;28;20046;-77
2023/09/02 07:30:27;;;;;;;2.70;1.38;;;22.50;99.90;;;;;;6247887;28;20060;-78
2023/09/02 07:33:30;;;;;;;2.83;0.98;;;22.50;99.90;;;;;;6244838;28;20050;-76
2023/09/02 07:36:32;;;;;;;3.97;1.20;;;22.50;99.90;;;;;;6238018;28;20523;-77
2023/09/02 07:39:34;;;;;;;5.00;1.08;;;22.70;99.90;;;;;;6241390;28;20054;-77
2023/09/02 07:42:35;;;;;;;1.75;1.27;;;22.80;99.90;;;;;;6245975;28;20632;-77
2023/09/02 07:45:37;;;;;;;2.90;1.00;;;23.00;99.90;;;;;;6246670;28;20436;-77
2023/09/02 07:48:40;;;;;;;1.45;1.15;;;23.00;99.90;;;;;;6245367;28;20049;-78
2023/09/02 07:51:43;;;;;;;2.05;1.17;;;23.10;99.90;;;;;;6246159;28;20045;-77
2023/09/02 07:54:45;;;;;;;2.30;1.23;;;23.10;99.90;;;;;;6247039;28;20053;-76
2023/09/02 07:57:46;;;;;;;1.92;1.27;;;23.30;99.90;;;;;;6240987;28;20412;-76
2023/09/02 08:00:48;;;;;;;1.58;1.45;;;23.60;99.90;;;;;;6239257;28;20056;-77
2023/09/02 08:03:51;;;;;;;1.02;0.90;;;24.00;99.90;;;;;;6246086;28;20050;-76
2023/09/02 08:06:53;;;;;;;2.00;1.23;;;24.30;99.90;;;;;;6244836;28;20049;-77
2023/09/02 08:09:54;;;;;;;2.15;1.10;;;24.70;99.90;;;;;;6245052;28;20097;-77
2023/09/02 08:12:56;;;;;;;1.85;1.35;;;25.00;99.90;;;;;;6241699;28;20053;-77
2023/09/02 08:15:58;;;;;;;4.68;1.35;;;25.10;99.70;;;;;;6244619;28;20049;-77
2023/09/02 08:19:01;;;;;;;1.88;1.55;;;25.00;99.20;;;;;;6259534;28;20056;-77
2023/09/02 08:22:03;;;;;;;4.75;1.17;;;24.70;99.00;;;;;;6268096;28;20045;-77
2023/09/02 08:25:05;;;;;;;1.15;1.00;;;24.60;99.60;;;;;;6269361;28;20144;-77
2023/09/02 08:28:07;;;;;;;3.38;1.35;;;24.70;99.60;;;;;;6256490;28;20045;-77
2023/09/02 08:31:11;;;;;;;1.35;0.93;;;24.80;99.40;;;;;;6246777;28;20435;-77
2023/09/02 08:34:14;;;;;;;1.63;1.40;;;25.00;99.30;;;;;;6250129;28;20512;-77
2023/09/02 08:37:15;;;;;;;1.67;0.93;;;25.20;99.00;;;;;;6250343;28;20412;-76
2023/09/02 08:40:17;;;;;;;2.30;1.20;;;25.40;98.60;;;;;;6249396;28;20037;-77
2023/09/02 08:43:20;;;;;;;2.25;0.82;;;25.40;98.20;;;;;;6250026;28;20714;-76
2023/09/02 08:46:26;;;;;;;0.95;0.77;;;25.50;97.80;;;;;;6249679;28;20049;-77
2023/09/02 08:49:29;;;;;;;1.77;1.10;;;25.60;97.40;;;;;;6249186;28;20471;-77
2023/09/02 08:52:31;;;;;;;1.13;0.85;;;25.70;97.10;;;;;;6250082;28;20140;-76
2023/09/02 08:55:33;;;;;;;1.83;0.88;;;25.80;96.90;;;;;;6245368;28;20050;-76
2023/09/02 08:58:37;;;;;;;3.30;1.70;;;25.80;96.60;;;;;;6246253;28;20049;-77
2023/09/02 09:01:43;;;;;;;3.58;0.60;;;25.80;96.60;;;;;;6249263;28;20076;-76
2023/09/02 09:04:49;;;;;;;1.45;1.17;;;25.90;96.40;;;;;;6250302;28;20115;-77
2023/09/02 09:07:51;;;;;;;2.03;1.17;;;26.00;96.10;;;;;;6249871;28;20049;-76
2023/09/02 09:10:53;;;;;;;1.33;1.20;;;26.00;95.70;;;;;;6249040;28;20061;-76
2023/09/02 09:13:59;;;;;;;2.15;1.08;;;26.10;95.80;;;;;;6249216;28;20049;-76
2023/09/02 09:17:01;;;;;;;1.73;1.25;;;26.40;95.40;;;;;;6249001;28;20195;-77
2023/09/02 09:20:05;;;;;;;3.03;1.45;;;26.70;95.10;;;;;;6222209;28;20515;-77
2023/09/02 09:23:08;;;;;;;1.60;0.90;;;27.00;94.50;;;;;;6222709;28;20056;-76
2023/09/02 09:26:11;;;;;;;2.63;0.95;;;27.20;93.90;;;;;;6246387;28;20449;-76
2023/09/02 09:29:14;;;;;;;1.35;1.13;;;27.30;93.50;;;;;;6247654;28;20049;-76
2023/09/02 09:32:18;;;;;;;1.27;0.70;;;27.60;93.20;;;;;;6248409;28;20038;-76
2023/09/02 09:35:23;;;;;;;2.15;1.55;;;27.80;92.90;;;;;;6248892;28;20049;-76
2023/09/02 09:38:37;;;;;;;1.55;0.88;;;27.90;92.20;;;;;;6248135;28;20050;-76
2023/09/02 09:41:47;;;;;;;1.30;0.65;;;27.80;92.10;;;;;;6247719;28;20464;-76
2023/09/02 09:44:53;;;;;;;1.55;1.15;;;27.80;92.10;;;;;;6248030;28;20041;-76
2023/09/02 09:47:58;;;;;;;1.98;0.80;;;27.90;91.80;;;;;;6247895;28;20045;-76
2023/09/02 09:51:07;;;;;;;1.50;1.00;;;27.90;91.50;;;;;;6248635;28;20135;-77
2023/09/02 09:54:09;;;;;;;2.10;1.05;;;27.90;91.50;;;;;;6248167;28;20531;-77
2023/09/02 09:57:13;;;;;;;1.55;1.15;;;28.20;91.10;;;;;;6247885;28;20045;-76
2023/09/02 10:00:15;;;;;;;1.23;1.00;;;28.20;90.90;;;;;;6247891;28;20044;-77
2023/09/02 10:03:17;;;;;;;3.53;0.80;;;28.50;90.60;;;;;;6248377;28;20053;-76
2023/09/02 10:06:20;;;;;;;2.60;1.00;;;28.50;90.40;;;;;;6247838;28;20071;-77
2023/09/02 10:09:22;;;;;;;2.33;1.17;;;28.60;90.30;;;;;;6247721;28;20396;-76
2023/09/02 10:12:24;;;;;;;1.55;1.15;;;29.00;90.00;;;;;;6248040;28;20050;-76
2023/09/02 10:15:27;;;;;;;1.58;0.95;;;29.20;88.80;;;;;;6248209;28;20052;-76
2023/09/02 10:18:29;;;;;;;4.10;1.83;;;29.40;88.20;;;;;;6247321;28;20164;-77
2023/09/02 10:21:36;;;;;;;1.25;1.10;;;29.70;87.80;;;;;;6247621;28;20053;-77
2023/09/02 10:24:45;;;;;;;3.25;0.90;;;30.00;86.30;;;;;;6247107;28;20524;-77
2023/09/02 10:27:53;;;;;;;3.00;0.90;;;30.20;85.40;;;;;;6247269;28;20054;-77
2023/09/02 10:30:58;;;;;;;3.03;1.60;;;30.50;84.40;;;;;;6246946;28;20049;-77
2023/09/02 10:34:05;;;;;;;3.05;1.13;;;30.70;83.00;;;;;;6247439;28;20060;-76
2023/09/02 10:37:13;;;;;;;1.37;0.77;;;31.00;81.60;;;;;;6247162;28;20056;-77
2023/09/02 10:40:20;;;;;;;3.42;1.10;;;31.20;80.40;;;;;;6247019;28;20045;-76
2023/09/02 10:43:24;;;;;;;1.85;1.23;;;31.50;79.60;;;;;;6246931;28;20049;-77
2023/09/02 10:46:27;;;;;;;1.45;0.98;;;31.60;79.00;;;;;;6247578;28;20053;-77
2023/09/02 10:49:29;;;;;;;3.50;1.30;;;31.70;77.90;;;;;;6246638;28;20054;-77
2023/09/02 10:52:32;;;;;;;1.35;1.17;;;31.70;77.20;;;;;;6246867;28;20408;-77
2023/09/02 10:55:33;;;;;;;4.07;0.82;;;31.70;76.60;;;;;;6246826;28;20416;-77
2023/09/02 10:58:46;;;;;;;1.27;1.15;;;31.80;76.60;;;;;;6246868;28;20045;-77
2023/09/02 11:01:49;;;;;;;1.30;0.98;;;32.00;75.50;;;;;;6246424;28;20099;-77
2023/09/02 11:04:59;;;;;;;3.97;1.13;;;32.10;75.20;;;;;;6246473;28;20412;-77
2023/09/02 11:08:41;;;;;;;1.63;1.00;;;32.30;73.80;;;;;;6246349;28;20052;-77
2023/09/02 11:12:10;;;;;;;2.45;1.00;;;32.30;73.30;;;;;;6246404;28;20056;-77
2023/09/02 11:15:18;;;;;;;4.57;1.10;;;32.80;72.30;;;;;;6246863;28;20057;-77
2023/09/02 11:18:28;;;;;;;2.17;1.23;;;33.00;71.50;;;;;;6256450;28;20044;-77
2023/09/02 11:21:40;;;;;;;0.90;0.70;;;33.20;70.60;;;;;;6270478;28;20053;-77
2023/09/02 11:24:50;;;;;;;0.68;0.65;;;33.40;69.20;;;;;;6270638;28;20052;-77
2023/09/02 11:27:53;;;;;;;1.55;0.95;;;33.50;68.70;;;;;;6245242;28;20049;-77
2023/09/02 11:31:09;;;;;;;2.17;0.82;;;33.70;68.30;;;;;;6246351;28;20061;-77
2023/09/02 11:34:16;;;;;;;1.38;0.80;;;34.00;67.10;;;;;;6246339;28;20433;-77
2023/09/02 11:37:31;;;;;;;0.98;0.77;;;34.20;66.00;;;;;;6245828;28;20416;-77
2023/09/02 11:40:34;;;;;;;1.77;1.65;;;34.50;64.80;;;;;;6245390;28;20505;-77
2023/09/02 11:43:37;;;;;;;1.65;0.80;;;34.80;64.00;;;;;;6245490;28;20045;-77
2023/09/02 11:46:39;;;;;;;2.40;1.02;;;34.90;63.40;;;;;;6246558;28;20049;-77
2023/09/02 11:49:42;;;;;;;2.50;1.08;;;34.80;62.90;;;;;;6245171;28;20045;-77
2023/09/02 11:52:44;;;;;;;0.77;0.75;;;35.00;62.20;;;;;;6245608;28;20613;-77
2023/09/02 11:55:47;;;;;;;1.85;0.73;;;35.10;61.50;;;;;;6245485;28;20056;-77
2023/09/02 11:58:48;;;;;;;1.38;1.15;;;35.50;60.20;;;;;;6245345;28;20061;-77
2023/09/02 12:02:08;;;;;;;2.70;0.77;;;35.60;59.40;;;;;;6245418;28;20053;-77
2023/09/02 12:05:09;;;;;;;3.55;1.58;;;35.60;59.20;;;;;;6244964;28;20048;-77
2023/09/02 12:08:12;;;;;;;1.60;1.13;;;35.70;58.70;;;;;;6245015;28;20064;-77
2023/09/02 12:11:16;;;;;;;1.75;1.00;;;36.00;58.30;;;;;;6246044;28;20075;-77
2023/09/02 12:14:18;;;;;;;9.05;1.63;;;36.10;57.50;;;;;;6244550;28;20042;-77
2023/09/02 12:17:20;;;;;;;4.32;0.93;;;36.10;57.30;;;;;;6247688;28;20057;-77
2023/09/02 12:20:22;;;;;;;1.95;0.98;;;36.20;56.40;;;;;;6259421;28;20041;-77
2023/09/02 12:23:24;;;;;;;1.33;0.85;;;36.00;55.90;;;;;;6243872;28;20042;-76
2023/09/02 12:26:27;;;;;;;1.63;1.52;;;35.70;56.60;;;;;;6242685;28;20045;-77
2023/09/02 12:29:29;;;;;;;2.35;0.82;;;35.90;56.50;;;;;;6243046;28;20060;-77
2023/09/02 12:32:31;;;;;;;2.03;0.52;;;36.10;56.20;;;;;;6240849;28;20045;-79
2023/09/02 12:35:33;;;;;;;1.15;0.80;;;36.50;55.40;;;;;;6246335;28;20053;-76
2023/09/02 12:38:48;;;;;;;2.25;0.80;;;36.80;54.40;;;;;;6240968;28;20053;-76
2023/09/02 12:41:51;;;;;;;2.55;0.80;;;36.90;53.40;;;;;;6244852;28;20052;-77
2023/09/02 12:44:55;;;;;;;1.10;0.70;;;36.90;53.60;;;;;;6244973;28;20053;-76
2023/09/02 12:47:57;;;;;;;3.38;0.77;;;36.90;52.90;;;;;;6244652;28;20050;-77
2023/09/02 12:50:59;;;;;;;1.83;0.88;;;36.90;51.90;;;;;;6245803;28;20046;-77
2023/09/02 12:54:08;;;;;;;1.48;0.98;;;37.00;51.60;;;;;;6245827;28;20048;-77
2023/09/02 12:57:11;;;;;;;1.58;0.95;;;37.10;51.30;;;;;;6246039;28;20639;-78
2023/09/02 13:00:13;;;;;;;0.95;0.85;;;37.20;51.10;;;;;;6245491;28;20042;-78
2023/09/02 13:03:15;;;;;;;2.50;0.98;;;37.20;50.90;;;;;;6247472;28;20046;-78
2023/09/02 13:06:17;;;;;;;1.25;0.90;;;37.30;50.80;;;;;;6246541;28;20056;-78
2023/09/02 13:09:18;;;;;;;2.67;0.70;;;37.40;50.50;;;;;;6246300;28;20052;-77
2023/09/02 13:12:22;;;;;;;1.95;0.60;;;37.30;50.80;;;;;;6246885;28;20049;-77
2023/09/02 13:15:25;;;;;;;1.35;1.00;;;37.50;51.10;;;;;;6256231;28;20056;-76
2023/09/02 13:18:27;;;;;;;1.33;0.88;;;37.80;50.50;;;;;;6252344;28;20115;-77
2023/09/02 13:21:30;;;;;;;1.25;0.77;;;37.90;50.40;;;;;;6250662;28;20056;-77
2023/09/02 13:24:32;;;;;;;2.33;0.63;;;38.10;50.00;;;;;;6250026;28;20046;-77
2023/09/02 13:27:35;;;;;;;0.80;0.70;;;38.10;49.50;;;;;;6248850;28;20053;-74
2023/09/02 13:30:37;;;;;;;1.08;0.75;;;38.20;49.10;;;;;;6250189;28;20061;-77
2023/09/02 13:33:41;;;;;;;1.00;0.90;;;38.10;48.60;;;;;;6250086;28;20045;-77
2023/09/02 13:36:43;;;;;;;2.22;0.77;;;38.10;48.30;;;;;;6250208;28;20052;-78
2023/09/02 13:39:45;;;;;;;0.88;0.77;;;38.30;48.30;;;;;;6249802;28;20049;-77
2023/09/02 13:42:48;;;;;;;2.08;0.93;;;38.50;48.20;;;;;;6251239;28;20053;-78
2023/09/02 13:45:51;;;;;;;2.78;0.70;;;38.70;47.40;;;;;;6250009;28;20041;-77
2023/09/02 13:48:53;;;;;;;1.63;1.30;;;38.40;47.10;;;;;;6250037;28;20057;-77
2023/09/02 13:51:55;;;;;;;1.08;0.95;;;38.70;46.90;;;;;;6249870;28;20053;-77
2023/09/02 13:54:57;;;;;;;1.85;0.93;;;39.00;46.80;;;;;;6249645;28;20045;-77
2023/09/02 13:58:00;;;;;;;3.85;0.80;;;38.70;46.30;;;;;;6250593;28;20053;-77
2023/09/02 14:01:02;;;;;;;3.70;1.63;;;38.20;46.80;;;;;;6250144;28;20042;-77
2023/09/02 14:04:04;;;;;;;4.93;3.08;;;38.10;47.00;;;;;;6249696;28;20052;-77
2023/09/02 14:07:06;;;;;;;2.00;1.27;;;38.30;46.70;;;;;;6250661;28;20064;-77
2023/09/02 14:10:09;;;;;;;1.10;0.98;;;38.60;46.20;;;;;;6248316;28;20049;-77
2023/09/02 14:13:13;;;;;;;1.20;0.63;;;38.90;45.80;;;;;;6248298;28;20045;-77
2023/09/02 14:16:15;;;;;;;2.40;0.93;;;38.90;45.50;;;;;;6247671;28;20041;-77
2023/09/02 14:19:17;;;;;;;2.90;0.80;;;39.20;45.20;;;;;;6247514;28;20056;-77
2023/09/02 14:22:18;;;;;;;1.02;0.85;;;39.50;44.50;;;;;;6247747;28;20504;-76
2023/09/02 14:25:20;;;;;;;1.23;1.05;;;39.20;44.50;;;;;;6247582;28;20046;-77
2023/09/02 14:28:23;;;;;;;1.27;0.65;;;38.90;43.80;;;;;;6245626;28;20045;-77
2023/09/02 14:31:25;;;;;;;2.08;1.25;;;38.30;43.70;;;;;;6247189;28;20057;-77
2023/09/02 14:34:27;;;;;;;0.95;0.63;;;38.00;44.70;;;;;;6247365;28;20042;-77
2023/09/02 14:37:30;;;;;;;1.38;0.85;;;38.20;44.80;;;;;;6239605;28;20543;-76
2023/09/02 14:40:32;;;;;;;2.90;1.15;;;38.50;44.90;;;;;;6230396;28;20180;-77
2023/09/02 14:43:35;;;;;;;1.20;0.75;;;38.50;44.20;;;;;;6246455;28;20049;-77
2023/09/02 14:46:38;;;;;;;4.55;0.45;;;38.30;44.40;;;;;;6245196;28;20056;-77
2023/09/02 14:49:40;;;;;;;1.38;0.70;;;38.20;44.30;;;;;;6237478;28;20049;-77
2023/09/02 14:52:44;;;;;;;1.80;0.85;;;38.00;44.40;;;;;;6246015;28;20125;-77
2023/09/02 14:55:49;;;;;;;2.92;1.40;;;37.80;44.50;;;;;;6246420;28;20046;-76
2023/09/02 14:58:52;;;;;;;4.40;1.00;;;38.00;44.20;;;;;;6246376;28;20049;-77
2023/09/02 15:01:54;;;;;;;0.90;0.75;;;37.90;44.20;;;;;;6245494;28;20527;-77
2023/09/02 15:05:07;;;;;;;1.15;0.63;;;37.90;44.10;;;;;;6245483;28;20496;-77
2023/09/02 15:08:09;;;;;;;1.42;0.68;;;37.80;44.00;;;;;;6244186;28;20045;-77
2023/09/02 15:11:10;;;;;;;1.13;1.02;;;37.40;44.30;;;;;;6243531;28;20453;-77
2023/09/02 15:14:14;;;;;;;1.33;0.93;;;37.70;44.30;;;;;;6245261;28;20045;-77
2023/09/02 15:17:16;;;;;;;2.97;1.33;;;37.50;44.30;;;;;;6245705;28;20049;-77
2023/09/02 15:20:24;;;;;;;1.65;0.80;;;37.10;44.40;;;;;;6269095;28;20037;-77
2023/09/02 15:23:25;;;;;;;3.00;1.15;;;36.60;45.40;;;;;;6246893;28;20053;-77
2023/09/02 15:26:27;;;;;;;2.00;1.35;;;36.10;45.90;;;;;;6246321;28;20045;-77
2023/09/02 15:29:30;;;;;;;0.82;0.75;;;35.60;45.90;;;;;;6245931;28;20425;-77
2023/09/02 15:32:32;;;;;;;1.45;0.93;;;35.10;46.30;;;;;;6245531;28;20068;-77
2023/09/02 15:35:34;;;;;;;2.85;1.08;;;34.50;46.80;;;;;;6246097;28;20049;-76
2023/09/02 15:38:39;;;;;;;1.75;1.15;;;34.00;47.40;;;;;;6245686;28;20148;-76
2023/09/02 15:41:41;;;;;;;2.92;1.33;;;33.60;48.10;;;;;;6245179;28;20046;-76
2023/09/02 15:44:46;;;;;;;1.30;0.93;;;33.30;48.70;;;;;;6245618;28;20037;-77
2023/09/02 15:47:47;;;;;;;1.90;1.38;;;32.90;49.70;;;;;;6245234;28;20049;-76
2023/09/02 15:50:49;;;;;;;2.22;1.30;;;32.50;50.90;;;;;;6245825;28;20049;-76
2023/09/02 15:53:51;;;;;;;1.20;1.05;;;32.30;52.30;;;;;;6245694;28;20038;-76